createdAt,value
2018-08-20T00:02:00.679Z,100947.80
2018-08-20T00:04:35.097Z,100947.48
2018-08-20T00:07:04.100Z,100955.42
2018-08-20T00:09:38.596Z,100951.93
2018-08-20T00:12:08.679Z,100950.13
2018-08-20T00:14:37.738Z,100948.61
2018-08-20T00:17:06.681Z,100943.14
2018-08-20T00:19:35.571Z,100958.72
2018-08-20T00:22:04.507Z,100956.23
2018-08-20T00:24:33.341Z,100951.47
2018-08-20T00:27:03.331Z,100937.06
2018-08-20T00:29:32.817Z,100940.48
2018-08-20T00:32:01.600Z,100938.70
2018-08-20T00:34:30.433Z,100927.56
2018-08-20T00:36:59.332Z,100933.57
2018-08-20T00:39:28.104Z,100942.84
2018-08-20T00:41:57.009Z,100942.86
2018-08-20T00:44:25.937Z,100935.27
2018-08-20T00:46:56.028Z,100931.63
2018-08-20T00:49:24.881Z,100942.70
2018-08-20T00:51:54.789Z,100926.00
2018-08-20T00:54:23.661Z,100920.03
2018-08-20T00:56:52.504Z,100930.45
2018-08-20T00:59:21.343Z,100925.66
2018-08-20T01:01:50.279Z,100919.88
2018-08-20T01:04:19.140Z,100925.01
2018-08-20T01:06:47.989Z,100928.64
2018-08-20T01:09:16.912Z,100930.46
2018-08-20T01:11:45.722Z,100924.34
2018-08-20T01:14:14.721Z,100917.85
2018-08-20T01:16:43.610Z,100916.33
2018-08-20T01:19:12.402Z,100918.39
2018-08-20T01:21:41.349Z,100919.72
2018-08-20T01:24:10.153Z,100919.05
2018-08-20T01:26:38.948Z,100913.41
2018-08-20T01:29:08.031Z,100921.69
2018-08-20T01:31:36.852Z,100910.62
2018-08-20T01:34:12.025Z,100916.40
2018-08-20T01:36:41.067Z,100911.60
2018-08-20T01:39:09.956Z,100907.48
2018-08-20T01:41:38.826Z,100915.42
2018-08-20T01:44:07.876Z,100917.57
2018-08-20T01:46:36.787Z,100913.27
2018-08-20T01:49:05.693Z,100916.70
2018-08-20T01:51:34.557Z,100916.86
2018-08-20T01:54:03.414Z,100915.03
2018-08-20T01:56:32.305Z,100920.81
2018-08-20T01:59:01.129Z,100920.16
2018-08-20T02:01:29.940Z,100922.13
2018-08-20T02:03:58.896Z,100924.77
2018-08-20T02:06:27.699Z,100931.55
2018-08-20T02:08:56.505Z,100931.84
2018-08-20T02:11:25.381Z,100923.89
2018-08-20T02:13:54.376Z,100924.69
2018-08-20T02:16:23.177Z,100932.46
2018-08-20T02:18:52.066Z,100928.97
2018-08-20T02:21:20.969Z,100922.88
2018-08-20T02:23:49.806Z,100930.17
2018-08-20T02:26:18.607Z,100928.02
2018-08-20T02:28:47.456Z,100929.46
2018-08-20T02:31:16.285Z,100921.87
2018-08-20T02:33:46.102Z,100924.66
2018-08-20T02:36:14.993Z,100922.48
2018-08-20T02:38:43.859Z,100926.25
2018-08-20T02:41:12.718Z,100921.16
2018-08-20T02:43:41.626Z,100918.18
2018-08-20T02:46:10.638Z,100923.61
2018-08-20T02:48:39.560Z,100925.41
2018-08-20T02:51:08.491Z,100924.83
2018-08-20T02:53:37.338Z,100928.39
2018-08-20T02:56:06.234Z,100925.27
2018-08-20T02:58:35.151Z,100925.90
2018-08-20T03:01:03.965Z,100934.49
2018-08-20T03:03:32.952Z,100936.66
2018-08-20T03:06:01.869Z,100935.08
2018-08-20T03:08:30.710Z,100928.39
2018-08-20T03:10:59.535Z,100930.20
2018-08-20T03:13:28.436Z,100925.73
2018-08-20T03:15:57.308Z,100925.08
2018-08-20T03:18:26.192Z,100937.09
2018-08-20T03:20:55.133Z,100927.85
2018-08-20T03:23:24.005Z,100929.05
2018-08-20T03:25:52.801Z,100931.98
2018-08-20T03:28:22.060Z,100939.92
2018-08-20T03:30:50.955Z,100934.78
2018-08-20T03:33:19.861Z,100930.17
2018-08-20T03:35:50.030Z,100931.50
2018-08-20T03:38:18.899Z,100935.84
2018-08-20T03:40:48.697Z,100934.00
2018-08-20T03:43:17.620Z,100932.37
2018-08-20T03:45:46.440Z,100925.75
2018-08-20T03:48:15.274Z,100940.00
2018-08-20T03:50:44.148Z,100939.70
2018-08-20T03:53:13.174Z,100939.02
2018-08-20T03:55:41.993Z,100936.73
2018-08-20T03:58:10.828Z,100937.08
2018-08-20T04:00:39.845Z,100929.31
2018-08-20T04:03:08.864Z,100938.40
2018-08-20T04:05:37.709Z,100933.13
2018-08-20T04:08:08.005Z,100932.14
2018-08-20T04:10:36.828Z,100933.13
2018-08-20T04:13:05.697Z,100927.39
2018-08-20T04:15:34.567Z,100934.50
2018-08-20T04:18:03.481Z,100935.67
2018-08-20T04:20:32.294Z,100937.98
2018-08-20T04:23:01.189Z,100927.61
2018-08-20T04:25:30.386Z,100932.73
2018-08-20T04:27:59.277Z,100926.30
2018-08-20T04:30:28.121Z,100928.95
2018-08-20T04:32:56.980Z,100931.11
2018-08-20T04:35:25.972Z,100927.48
2018-08-20T04:37:55.418Z,100933.45
2018-08-20T04:40:24.329Z,100931.28
2018-08-20T04:42:53.209Z,100935.41
2018-08-20T04:45:22.084Z,100925.30
2018-08-20T04:47:50.860Z,100931.77
2018-08-20T04:50:19.873Z,100930.27
2018-08-20T04:52:48.570Z,100931.54
2018-08-20T04:55:17.422Z,100940.48
2018-08-20T04:57:46.275Z,100932.98
2018-08-20T05:00:15.139Z,100935.74
2018-08-20T05:02:44.012Z,100926.39
2018-08-20T05:05:12.829Z,100928.33
2018-08-20T05:07:41.642Z,100927.70
2018-08-20T05:10:10.667Z,100931.77
2018-08-20T05:12:39.407Z,100943.92
2018-08-20T05:15:08.729Z,100935.73
2018-08-20T05:17:38.841Z,100952.88
2018-08-20T05:20:08.526Z,100934.11
2018-08-20T05:22:37.317Z,100944.44
2018-08-20T05:25:06.365Z,100940.75
2018-08-20T05:27:35.278Z,100929.77
2018-08-20T05:30:04.220Z,100955.61
2018-08-20T05:32:33.016Z,100933.13
2018-08-20T05:35:01.844Z,100937.62
2018-08-20T05:37:30.696Z,100958.45
2018-08-20T05:39:59.542Z,100959.17
2018-08-20T05:42:29.487Z,100957.84
2018-08-20T05:44:58.329Z,100984.02
2018-08-20T05:47:28.134Z,100981.84
2018-08-20T05:49:58.731Z,100967.99
2018-08-20T05:52:28.496Z,100979.37
2018-08-20T05:54:59.655Z,100955.42
2018-08-20T05:57:30.319Z,100958.58
2018-08-20T06:00:01.467Z,100980.77
2018-08-20T06:02:37.420Z,100987.09
2018-08-20T06:05:09.088Z,100946.37
2018-08-20T06:07:41.692Z,100960.86
2018-08-20T06:10:11.571Z,100975.17
2018-08-20T06:12:43.874Z,100970.05
2018-08-20T06:15:15.831Z,100981.86
2018-08-20T06:17:48.835Z,100974.49
2018-08-20T06:20:20.163Z,100981.86
2018-08-20T06:22:53.073Z,100970.48
2018-08-20T06:25:22.413Z,100965.20
2018-08-20T06:27:53.570Z,100977.92
2018-08-20T06:30:26.402Z,100986.80
2018-08-20T06:32:57.273Z,100979.17
2018-08-20T06:35:30.324Z,100969.66
2018-08-20T06:38:01.925Z,100956.20
2018-08-20T06:40:35.855Z,100978.45
2018-08-20T06:43:08.935Z,100982.45
2018-08-20T06:45:40.197Z,100984.19
2018-08-20T06:48:11.835Z,100979.80
2018-08-20T06:50:41.930Z,100972.98
2018-08-20T06:53:12.443Z,100996.17
2018-08-20T06:55:43.804Z,100997.05
2018-08-20T06:58:13.050Z,100960.22
2018-08-20T07:00:42.321Z,100988.12
2018-08-20T07:03:14.503Z,100991.53
2018-08-20T07:05:47.556Z,100983.52
2018-08-20T07:08:17.593Z,100991.84
2018-08-20T07:10:50.864Z,100991.20
2018-08-20T07:13:36.379Z,100969.45
2018-08-20T07:16:13.397Z,100970.06
2018-08-20T07:18:43.247Z,100984.86
2018-08-20T07:21:13.831Z,100982.44
2018-08-20T07:23:46.360Z,100980.62
2018-08-20T07:26:16.936Z,100986.34
2018-08-20T07:28:49.960Z,100983.36
2018-08-20T07:31:20.795Z,100982.86
2018-08-20T07:33:54.838Z,100979.50
2018-08-20T07:36:26.713Z,100984.23
2018-08-20T07:38:58.220Z,100977.19
2018-08-20T07:41:28.553Z,100990.27
2018-08-20T07:44:00.724Z,100983.45
2018-08-20T07:46:31.042Z,100987.59
2018-08-20T07:49:07.334Z,100987.86
2018-08-20T07:51:38.609Z,100990.03
2018-08-20T07:54:08.063Z,100985.41
2018-08-20T07:56:38.953Z,100984.55
2018-08-20T07:59:10.417Z,100987.22
2018-08-20T08:01:43.086Z,100985.38
2018-08-20T08:04:14.740Z,100978.20
2018-08-20T08:06:48.300Z,100973.84
2018-08-20T08:09:18.652Z,100980.91
2018-08-20T08:11:54.843Z,100985.22
2018-08-20T08:14:24.153Z,100982.41
2018-08-20T08:16:57.200Z,100978.80
2018-08-20T08:19:32.873Z,100982.78
2018-08-20T08:22:02.344Z,100983.09
2018-08-20T08:24:33.078Z,100973.50
2018-08-20T08:27:03.656Z,100974.95
2018-08-20T08:29:34.694Z,100973.18
2018-08-20T08:32:05.710Z,100978.02
2018-08-20T08:34:35.771Z,100967.66
2018-08-20T08:37:06.667Z,100968.58
2018-08-20T08:39:39.730Z,100967.10
2018-08-20T08:42:16.141Z,100960.50
2018-08-20T08:44:47.490Z,100964.41
2018-08-20T08:47:24.301Z,100966.91
2018-08-20T08:50:03.161Z,100957.97
2018-08-20T08:52:38.579Z,100959.22
2018-08-20T08:55:09.840Z,100962.28
2018-08-20T08:57:41.729Z,100968.15
2018-08-20T09:00:20.026Z,100964.95
2018-08-20T09:02:51.414Z,100966.65
2018-08-20T09:05:25.351Z,100977.43
2018-08-20T09:07:55.356Z,100977.57
2018-08-20T09:10:29.766Z,100976.92
2018-08-20T09:12:59.617Z,100971.45
2018-08-20T09:15:31.464Z,100975.89
2018-08-20T09:18:02.570Z,100971.16
2018-08-20T09:20:33.417Z,100959.83
2018-08-20T09:23:05.596Z,100963.02
2018-08-20T09:25:37.006Z,100964.26
2018-08-20T09:28:08.373Z,100968.19
2018-08-20T09:30:42.030Z,100966.81
2018-08-20T09:33:13.193Z,100959.52
2018-08-20T09:35:43.576Z,100968.23
2018-08-20T09:38:16.107Z,100967.64
2018-08-20T09:40:48.475Z,100965.69
2018-08-20T09:43:20.627Z,100972.05
2018-08-20T09:45:52.565Z,100966.52
2018-08-20T09:48:24.808Z,100968.46
2018-08-20T09:50:55.917Z,100963.94
2018-08-20T09:53:29.140Z,100960.77
2018-08-20T09:55:58.581Z,100962.50
2018-08-20T09:58:31.485Z,100957.05
2018-08-20T10:01:04.780Z,100960.04
2018-08-20T10:03:34.819Z,100960.23
2018-08-20T10:08:45.161Z,100955.61
2018-08-20T10:11:18.157Z,100958.30
2018-08-20T10:13:50.304Z,100949.47
2018-08-20T10:16:20.744Z,100962.36
2018-08-20T10:18:54.992Z,100954.41
2018-08-20T10:21:24.388Z,100968.53
2018-08-20T10:23:54.839Z,100968.55
2018-08-20T10:26:29.100Z,100950.99
2018-08-20T10:28:59.974Z,100960.44
2018-08-20T10:31:32.118Z,100954.41
2018-08-20T10:34:02.549Z,100960.98
2018-08-20T10:36:32.698Z,100956.83
2018-08-20T10:39:07.234Z,100953.57
2018-08-20T10:41:40.843Z,100955.20
2018-08-20T10:44:13.372Z,100954.25
2018-08-20T10:46:44.124Z,100953.58
2018-08-20T10:49:17.301Z,100957.16
2018-08-20T10:51:46.733Z,100957.48
2018-08-20T10:54:20.788Z,100955.73
2018-08-20T10:56:51.840Z,100962.41
2018-08-20T10:59:26.392Z,100951.20
2018-08-20T11:01:56.750Z,100961.91
2018-08-20T11:04:28.289Z,100962.30
2018-08-20T11:06:58.796Z,100963.77
2018-08-20T11:09:31.302Z,100953.47
2018-08-20T11:12:01.687Z,100952.55
2018-08-20T11:14:33.185Z,100966.83
2018-08-20T11:17:03.961Z,100955.05
2018-08-20T11:19:33.766Z,100951.09
2018-08-20T11:22:06.315Z,100959.23
2018-08-20T11:24:38.107Z,100947.19
2018-08-20T11:27:11.063Z,100961.27
2018-08-20T11:29:46.424Z,100950.95
2018-08-20T11:32:19.579Z,100959.64
2018-08-20T11:34:52.243Z,100960.15
2018-08-20T11:37:23.245Z,100952.87
2018-08-20T11:39:54.195Z,100952.25
2018-08-20T11:42:25.622Z,100957.06
2018-08-20T11:44:59.112Z,100955.22
2018-08-20T11:47:31.145Z,100954.39
2018-08-20T11:50:02.715Z,100958.80
2018-08-20T11:52:37.367Z,100960.47
2018-08-20T11:55:08.937Z,100956.98
2018-08-20T11:57:40.383Z,100959.11
2018-08-20T12:00:12.855Z,100958.31
2018-08-20T12:02:42.803Z,100941.97
2018-08-20T12:05:19.192Z,100941.55
2018-08-20T12:07:50.810Z,100934.76
2018-08-20T12:10:28.134Z,100937.86
2018-08-20T12:12:58.944Z,100942.28
2018-08-20T12:15:34.674Z,100938.16
2018-08-20T12:18:07.588Z,100940.62
2018-08-20T12:20:37.411Z,100945.45
2018-08-20T12:23:08.328Z,100943.48
2018-08-20T12:25:41.716Z,100941.35
2018-08-20T12:28:12.959Z,100928.59
2018-08-20T12:30:44.963Z,100942.88
2018-08-20T12:33:14.658Z,100935.18
2018-08-20T12:35:50.040Z,100930.77
2018-08-20T12:38:24.018Z,100939.65
2018-08-20T12:40:55.842Z,100937.45
2018-08-20T12:43:27.709Z,100932.22
2018-08-20T12:45:59.856Z,100932.78
2018-08-20T12:48:29.871Z,100932.76
2018-08-20T12:51:04.439Z,100931.45
2018-08-20T12:53:34.978Z,100926.73
2018-08-20T12:56:07.786Z,100915.22
2018-08-20T12:58:48.656Z,100922.76
2018-08-20T13:01:20.462Z,100908.66
2018-08-20T13:03:51.005Z,100900.72
2018-08-20T13:06:21.013Z,100917.06
2018-08-20T13:08:57.246Z,100905.22
2018-08-20T13:11:28.189Z,100916.06
2018-08-20T13:14:00.801Z,100903.75
2018-08-20T13:16:31.271Z,100915.48
2018-08-20T13:19:04.779Z,100900.91
2018-08-20T13:21:35.555Z,100912.09
2018-08-20T13:24:06.335Z,100825.50
2018-08-20T13:26:35.907Z,100898.48
2018-08-20T13:29:07.863Z,100894.30
2018-08-20T13:31:40.656Z,100903.27
2018-08-20T13:34:17.039Z,100890.59
2018-08-20T13:36:49.099Z,100896.12
2018-08-20T13:39:20.527Z,100897.61
2018-08-20T13:41:50.794Z,100900.17
2018-08-20T13:44:21.301Z,100879.86
2018-08-20T13:46:56.945Z,100889.59
2018-08-20T13:49:29.531Z,100884.16
2018-08-20T13:51:58.998Z,100879.51
2018-08-20T13:54:29.825Z,100885.86
2018-08-20T13:57:03.081Z,100876.48
2018-08-20T13:59:35.048Z,100880.96
2018-08-20T14:02:07.505Z,100881.81
2018-08-20T14:04:37.925Z,100879.19
2018-08-20T14:07:10.747Z,100884.03
2018-08-20T14:09:39.793Z,100879.23
2018-08-20T14:12:08.709Z,100875.91
2018-08-20T14:14:38.598Z,100870.00
2018-08-20T14:17:07.522Z,100882.94
2018-08-20T14:19:38.734Z,100884.09
2018-08-20T14:22:07.682Z,100882.22
2018-08-20T14:24:36.561Z,100882.30
2018-08-20T14:27:05.618Z,100880.14
2018-08-20T14:29:36.511Z,100877.14
2018-08-20T14:32:06.214Z,100881.51
2018-08-20T14:34:35.141Z,100871.80
2018-08-20T14:37:05.419Z,100882.33
2018-08-20T14:39:35.898Z,100875.33
2018-08-20T14:42:07.040Z,100881.70
2018-08-20T14:44:37.618Z,100879.41
2018-08-20T14:47:07.213Z,100885.04
2018-08-20T14:49:39.607Z,100886.41
2018-08-20T14:52:11.691Z,100891.20
2018-08-20T14:54:45.884Z,100882.91
2018-08-20T14:57:15.326Z,100887.42
2018-08-20T14:59:46.655Z,100884.81
2018-08-20T15:02:16.863Z,100889.11
2018-08-20T15:04:48.213Z,100885.91
2018-08-20T15:07:19.704Z,100892.42
2018-08-20T15:09:50.188Z,100892.45
2018-08-20T15:12:21.736Z,100895.83
2018-08-20T15:14:53.903Z,100892.09
2018-08-20T15:17:25.025Z,100885.16
2018-08-20T15:19:55.151Z,100885.45
2018-08-20T15:22:27.480Z,100887.90
2018-08-20T15:24:56.850Z,100888.95
2018-08-20T15:27:29.730Z,100878.52
2018-08-20T15:30:02.716Z,100900.86
2018-08-20T15:32:40.777Z,100899.30
2018-08-20T15:35:12.391Z,100899.95
2018-08-20T15:37:44.105Z,100889.86
2018-08-20T15:40:14.561Z,100900.30
2018-08-20T15:42:48.036Z,100894.79
2018-08-20T15:45:18.311Z,100898.14
2018-08-20T15:47:49.108Z,100906.80
2018-08-20T15:50:24.739Z,100901.93
2018-08-20T15:52:58.572Z,100890.28
2018-08-20T15:55:27.867Z,100896.89
2018-08-20T15:57:58.185Z,100898.94
2018-08-20T16:00:35.962Z,100887.25
2018-08-20T16:03:05.252Z,100893.33
2018-08-20T16:05:37.338Z,100891.52
2018-08-20T16:08:11.570Z,100901.47
2018-08-20T16:10:46.844Z,100888.91
2018-08-20T16:13:16.163Z,100873.22
2018-08-20T16:15:48.511Z,100893.81
2018-08-20T16:18:21.362Z,100900.36
2018-08-20T16:20:52.466Z,100904.55
2018-08-20T16:23:25.281Z,100903.03
2018-08-20T16:25:55.465Z,100897.30
2018-08-20T16:28:24.924Z,100899.95
2018-08-20T16:30:56.287Z,100899.67
2018-08-20T16:33:27.121Z,100903.55
2018-08-20T16:35:59.477Z,100903.83
2018-08-20T16:38:29.348Z,100908.95
2018-08-20T16:41:00.854Z,100900.70
2018-08-20T16:43:35.498Z,100903.58
2018-08-20T16:46:06.307Z,100897.08
2018-08-20T16:48:38.111Z,100896.41
2018-08-20T16:51:09.286Z,100904.21
2018-08-20T16:53:38.605Z,100901.69
2018-08-20T16:56:07.684Z,100907.95
2018-08-20T16:58:39.889Z,100908.43
2018-08-20T17:01:19.280Z,100898.83
2018-08-20T17:03:51.725Z,100904.84
2018-08-20T17:06:21.255Z,100915.45
2018-08-20T17:08:51.883Z,100908.80
2018-08-20T17:11:21.486Z,100907.09
2018-08-20T17:13:53.190Z,100912.75
2018-08-20T17:16:24.466Z,100900.95
2018-08-20T17:18:55.347Z,100908.30
2018-08-20T17:21:26.234Z,100909.13
2018-08-20T17:23:59.973Z,100897.78
2018-08-20T17:26:30.993Z,100902.75
2018-08-20T17:29:18.843Z,100914.72
2018-08-20T17:31:49.693Z,100909.24
2018-08-20T17:34:24.631Z,100908.34
2018-08-20T17:36:55.109Z,100914.28
2018-08-20T17:39:27.655Z,100912.06
2018-08-20T17:41:59.408Z,100911.45
2018-08-20T17:44:31.214Z,100905.78
2018-08-20T17:47:01.909Z,100921.36
2018-08-20T17:49:32.931Z,100918.70
2018-08-20T17:52:05.132Z,100930.78
2018-08-20T17:54:36.484Z,100931.64
2018-08-20T17:57:07.010Z,100936.58
2018-08-20T17:59:37.893Z,100934.11
2018-08-20T18:02:14.436Z,100932.00
2018-08-20T18:04:44.298Z,100930.36
2018-08-20T18:07:31.986Z,100934.19
2018-08-20T18:10:02.149Z,100935.96
2018-08-20T18:12:32.971Z,100934.63
2018-08-20T18:15:06.333Z,100935.70
2018-08-20T18:17:36.146Z,100925.08
2018-08-20T18:20:11.363Z,100926.28
2018-08-20T18:22:42.734Z,100938.69
2018-08-20T18:25:16.510Z,100933.75
2018-08-20T18:27:46.492Z,100936.53
2018-08-20T18:30:19.219Z,100934.50
2018-08-20T18:32:49.529Z,100932.59
2018-08-20T18:35:29.593Z,100928.84
2018-08-20T18:37:59.048Z,100935.50
2018-08-20T18:40:30.564Z,100932.94
2018-08-20T18:43:05.614Z,100936.69
2018-08-20T18:45:37.526Z,100941.63
2018-08-20T18:48:08.121Z,100944.52
2018-08-20T18:50:39.526Z,100945.34
2018-08-20T18:53:10.753Z,100947.70
2018-08-20T18:55:48.900Z,100953.91
2018-08-20T18:58:20.283Z,100936.66
2018-08-20T19:00:51.939Z,100945.34
2018-08-20T19:03:25.385Z,100951.81
2018-08-20T19:05:57.104Z,100960.65
2018-08-20T19:08:32.818Z,100954.16
2018-08-20T19:11:03.611Z,100960.29
2018-08-20T19:13:35.451Z,100967.28
2018-08-20T19:19:16.543Z,100966.48
2018-08-20T19:21:45.987Z,100966.51
2018-08-20T19:24:18.174Z,100966.80
2018-08-20T19:26:49.895Z,100965.65
2018-08-20T19:29:30.365Z,100964.35
2018-08-20T19:32:02.953Z,100964.02
2018-08-20T19:34:32.957Z,100960.06
2018-08-20T19:37:04.336Z,100960.55
2018-08-20T19:39:37.260Z,100962.84
2018-08-20T19:42:08.325Z,100956.36
2018-08-20T19:44:38.295Z,100947.09
2018-08-20T19:47:08.718Z,100946.92
2018-08-20T19:49:40.752Z,100951.41
2018-08-20T19:52:11.147Z,100950.72
2018-08-20T19:54:47.137Z,100955.19
2018-08-20T19:57:19.479Z,100947.25
2018-08-20T19:59:52.827Z,100942.77
2018-08-20T20:02:27.761Z,100947.05
2018-08-20T20:05:04.935Z,100944.06
2018-08-20T20:07:39.051Z,100947.33
2018-08-20T20:10:18.547Z,100948.00
2018-08-20T20:12:56.144Z,100955.80
2018-08-20T20:15:27.359Z,100955.27
2018-08-20T20:17:59.828Z,100947.44
2018-08-20T20:20:36.590Z,100953.62
2018-08-20T20:23:12.309Z,100952.17
2018-08-20T20:25:44.916Z,100956.81
2018-08-20T20:28:17.387Z,100954.34
2018-08-20T20:30:47.992Z,100952.44
2018-08-20T20:33:25.659Z,100947.53
2018-08-20T20:35:56.523Z,100944.35
2018-08-20T20:38:27.344Z,100947.06
2018-08-20T20:41:00.720Z,100949.87
2018-08-20T20:43:42.184Z,100940.25
2018-08-20T20:46:18.123Z,100941.09
2018-08-20T20:48:49.127Z,100942.05
2018-08-20T20:51:22.719Z,100946.38
2018-08-20T20:53:54.306Z,100946.25
2018-08-20T20:56:26.894Z,100946.75
2018-08-20T20:58:58.565Z,100954.25
2018-08-20T21:01:30.544Z,100951.59
2018-08-20T21:04:08.580Z,100948.31
2018-08-20T21:06:44.157Z,100953.67
2018-08-20T21:09:17.671Z,100952.28
2018-08-20T21:11:49.581Z,100949.80
2018-08-20T21:14:21.492Z,100950.38
2018-08-20T21:16:57.580Z,100949.66
2018-08-20T21:19:29.632Z,100955.61
2018-08-20T21:22:05.817Z,100951.59
2018-08-20T21:24:36.321Z,100943.28
2018-08-20T21:27:40.052Z,100946.91
2018-08-20T21:30:12.448Z,100938.73
2018-08-20T21:32:41.824Z,100947.14
2018-08-20T21:35:19.543Z,100943.83
2018-08-20T21:37:49.441Z,100939.13
2018-08-20T21:40:23.570Z,100936.47
2018-08-20T21:42:55.081Z,100940.93
2018-08-20T21:45:25.550Z,100937.89
2018-08-20T21:47:56.588Z,100936.79
2018-08-20T21:50:28.316Z,100930.11
2018-08-20T21:52:58.477Z,100932.50
2018-08-20T21:55:29.590Z,100927.81
2018-08-20T21:58:01.753Z,100925.39
2018-08-20T22:00:33.770Z,100929.30
2018-08-20T22:03:06.214Z,100924.94
2018-08-20T22:05:37.469Z,100925.48
2018-08-20T22:08:06.732Z,100923.58
2018-08-20T22:10:38.485Z,100923.84
2018-08-20T22:13:11.520Z,100929.06
2018-08-20T22:15:46.779Z,100929.28
2018-08-20T22:18:19.206Z,100928.89
2018-08-20T22:20:48.905Z,100921.95
2018-08-20T22:23:25.374Z,100927.22
2018-08-20T22:25:55.546Z,100919.02
2018-08-20T22:28:25.411Z,100913.84
2018-08-20T22:30:57.744Z,100905.14
2018-08-20T22:33:29.634Z,100909.44
2018-08-20T22:36:01.817Z,100910.57
2018-08-20T22:38:46.066Z,100904.60
2018-08-20T22:41:16.918Z,100909.95
2018-08-20T22:43:48.975Z,100782.63
2018-08-20T22:46:18.883Z,100911.18
2018-08-20T22:48:53.654Z,100913.55
2018-08-20T22:51:23.986Z,100918.95
2018-08-20T22:53:58.983Z,100922.13
2018-08-20T22:56:31.212Z,100913.66
2018-08-20T22:59:01.939Z,100911.68
2018-08-20T23:01:32.720Z,100914.07
2018-08-20T23:04:02.338Z,100919.53
2018-08-20T23:06:32.074Z,100920.42
2018-08-20T23:09:11.373Z,100914.80
2018-08-20T23:11:42.572Z,100914.91
2018-08-20T23:14:12.641Z,100920.20
2018-08-20T23:16:41.854Z,100921.41
2018-08-20T23:19:11.121Z,100914.62
2018-08-20T23:21:44.108Z,100916.56
2018-08-20T23:24:14.376Z,100920.53
2018-08-20T23:26:45.217Z,100917.05
2018-08-20T23:29:15.224Z,100922.88
2018-08-20T23:31:45.016Z,100913.78
2018-08-20T23:34:16.883Z,100920.77
2018-08-20T23:36:46.132Z,100917.31
2018-08-20T23:39:16.839Z,100917.66
2018-08-20T23:41:45.859Z,100915.05
2018-08-20T23:44:16.950Z,100917.29
2018-08-20T23:46:50.582Z,100918.70
2018-08-20T23:49:19.557Z,100916.00
2018-08-20T23:51:49.322Z,100918.87
2018-08-20T23:54:18.226Z,100910.21
2018-08-20T23:56:47.183Z,100916.11
2018-08-20T23:59:16.092Z,100911.20
